Aeroporto :
LOGIN :

Iscrizione | Disclaimer

   EN    FR    IT 

 










Sommario :    VFR   VFR Marginale   IFR   IFR Intensivo   IFR Molto Intensivo
Visibilità : 
Base nubi : 
>= 8 km
>= 3000ft
5 / 8 km
1000 / 3000 ft
1500m / 5 km
500 / 1000 ft
800 / 1500m
200 / 500 ft
< 800m
< 200 ft
Simboli :   Temporali  Nebbia  Neve Forte  Precipitazioni Forti  Vento > 20 kt
SIGMETs :   Varie  Temporali  Ghiacco  Turbolenza  Onda orograficha  Ceneri Vulcaniche






- Altitudine del aeroporto : 194 ft
- Codice IATA : IEG


EPZG - Zielona Gora Babimost

ULTIMO METAR :
  • 120530Z 26001KT 3500 -RA BR NSC 02/01 Q1008

METARs OBSOLETI :
  • 120500Z 00000KT 4000 BR NSC 01/01 Q1007
  • 120430Z 24001KT 5000 BR NSC 01/00 Q1007
  • 120400Z 17001KT 5000 BR NSC 01/00 Q1007

TAF TAF EPZG
Valido dal 12 a 06 ore il 12 a 15 ore UTC


120530Z 1206/1215 VRB02KT 4000 BR NSC
BECMG 1206/1209 8000 BKN012
TEMPO 1212/1215 BKN016



MetMap, La meteo Aeronautica in un colpo d'occhio ! - Copyright ORBIFLY Dicembre 2007 - Disclaimer

ORBIFLY MET'MAP TEAM :

Programmazione e sviluppo : Alexandra Zaïnal
Concezione e sviluppo : Baudouin d'Aumeries
Co-Programmazione e sviluppo : Marc-Olivier Méhu
Supporto tecnico e logistico : Manuel Goepfert
Aiuto per la traduzione : Arnaldo La Scala

Contatto : metmap@orbifly.com




FONTI E CREDITI :

   NOAA